sensor_id;sensor_type;location;lat;lon;timestamp;pressure;altitude;pressure_sealevel;temperature;humidity
9235;BME280;4652;42.716;23.218;2022-08-21T01:06:55;94362.50;;;18.55;100.00
9235;BME280;4652;42.716;23.218;2022-08-21T01:13:39;94323.22;;;18.28;100.00
9235;BME280;4652;42.716;23.218;2022-08-21T01:20:26;94349.50;;;18.36;100.00
9235;BME280;4652;42.716;23.218;2022-08-21T01:27:10;94323.28;;;18.32;100.00
9235;BME280;4652;42.716;23.218;2022-08-21T01:33:54;94340.13;;;18.49;100.00
9235;BME280;4652;42.716;23.218;2022-08-21T01:40:37;94334.00;;;18.52;100.00
9235;BME280;4652;42.716;23.218;2022-08-21T01:47:20;94359.75;;;18.55;100.00
9235;BME280;4652;42.716;23.218;2022-08-21T01:54:02;94340.38;;;18.44;100.00
9235;BME280;4652;42.716;23.218;2022-08-21T02:00:45;94347.53;;;18.37;100.00
9235;BME280;4652;42.716;23.218;2022-08-21T02:07:35;94347.41;;;18.17;100.00
9235;BME280;4652;42.716;23.218;2022-08-21T02:14:18;94337.47;;;18.09;100.00
9235;BME280;4652;42.716;23.218;2022-08-21T02:21:01;94325.84;;;17.97;100.00
9235;BME280;4652;42.716;23.218;2022-08-21T02:27:45;94357.31;;;18.22;100.00
9235;BME280;4652;42.716;23.218;2022-08-21T02:34:28;94321.75;;;18.03;100.00
9235;BME280;4652;42.716;23.218;2022-08-21T02:41:14;94357.56;;;17.89;100.00
9235;BME280;4652;42.716;23.218;2022-08-21T02:47:59;94353.88;;;17.97;100.00
9235;BME280;4652;42.716;23.218;2022-08-21T02:54:41;94348.91;;;17.87;100.00
9235;BME280;4652;42.716;23.218;2022-08-21T03:01:23;94349.16;;;17.82;100.00
9235;BME280;4652;42.716;23.218;2022-08-21T03:08:10;94359.13;;;17.90;100.00
9235;BME280;4652;42.716;23.218;2022-08-21T03:14:53;94349.16;;;17.82;100.00
9235;BME280;4652;42.716;23.218;2022-08-21T03:21:35;94362.94;;;18.01;100.00
9235;BME280;4652;42.716;23.218;2022-08-21T03:28:20;94357.06;;;17.99;100.00
9235;BME280;4652;42.716;23.218;2022-08-21T03:35:03;94344.81;;;17.93;100.00
9235;BME280;4652;42.716;23.218;2022-08-21T03:41:46;94344.50;;;17.83;100.00
9235;BME280;4652;42.716;23.218;2022-08-21T03:48:30;94362.25;;;18.04;100.00
9235;BME280;4652;42.716;23.218;2022-08-21T03:55:12;94372.34;;;18.04;100.00
9235;BME280;4652;42.716;23.218;2022-08-21T04:01:56;94379.91;;;18.23;100.00
9235;BME280;4652;42.716;23.218;2022-08-21T04:08:40;94372.84;;;18.22;100.00
9235;BME280;4652;42.716;23.218;2022-08-21T04:15:24;94379.16;;;18.10;100.00
9235;BME280;4652;42.716;23.218;2022-08-21T04:22:07;94385.91;;;18.00;100.00
9235;BME280;4652;42.716;23.218;2022-08-21T04:28:51;94395.47;;;18.22;100.00
9235;BME280;4652;42.716;23.218;2022-08-21T04:35:33;94399.81;;;18.39;100.00
9235;BME280;4652;42.716;23.218;2022-08-21T04:42:15;94389.75;;;18.55;100.00
9235;BME280;4652;42.716;23.218;2022-08-21T04:48:59;94377.38;;;18.73;100.00
9235;BME280;4652;42.716;23.218;2022-08-21T04:55:42;94384.06;;;18.91;100.00
9235;BME280;4652;42.716;23.218;2022-08-21T05:02:24;94362.50;;;19.02;100.00
9235;BME280;4652;42.716;23.218;2022-08-21T05:09:09;94371.53;;;19.37;100.00
9235;BME280;4652;42.716;23.218;2022-08-21T05:15:51;94363.06;;;19.58;100.00
9235;BME280;4652;42.716;23.218;2022-08-21T05:22:33;94366.94;;;19.57;100.00
9235;BME280;4652;42.716;23.218;2022-08-21T05:29:17;94364.63;;;19.59;100.00
9235;BME280;4652;42.716;23.218;2022-08-21T05:35:59;94364.59;;;19.74;100.00
9235;BME280;4652;42.716;23.218;2022-08-21T05:42:41;94350.09;;;20.09;100.00
9235;BME280;4652;42.716;23.218;2022-08-21T05:49:25;94331.88;;;19.97;100.00
9235;BME280;4652;42.716;23.218;2022-08-21T05:56:06;94357.78;;;19.84;100.00
9235;BME280;4652;42.716;23.218;2022-08-21T06:02:48;94363.75;;;19.89;100.00
9235;BME280;4652;42.716;23.218;2022-08-21T06:09:33;94358.69;;;20.26;100.00
9235;BME280;4652;42.716;23.218;2022-08-21T06:16:16;94339.78;;;21.84;100.00
9235;BME280;4652;42.716;23.218;2022-08-21T06:22:58;94325.31;;;22.87;100.00
9235;BME280;4652;42.716;23.218;2022-08-21T06:29:41;94306.34;;;23.18;100.00
9235;BME280;4652;42.716;23.218;2022-08-21T06:36:24;94291.31;;;23.53;100.00
9235;BME280;4652;42.716;23.218;2022-08-21T06:43:08;94284.97;;;24.28;100.00
9235;BME280;4652;42.716;23.218;2022-08-21T06:49:52;94296.16;;;23.84;100.00
9235;BME280;4652;42.716;23.218;2022-08-21T06:56:34;94307.63;;;22.84;100.00
9235;BME280;4652;42.716;23.218;2022-08-21T07:07:22;94272.88;;;24.75;100.00
9235;BME280;4652;42.716;23.218;2022-08-21T07:14:04;94300.91;;;31.27;65.50
9235;BME280;4652;42.716;23.218;2022-08-21T07:20:46;94299.16;;;33.35;53.72
9235;BME280;4652;42.716;23.218;2022-08-21T07:27:30;94295.97;;;27.46;70.74
9235;BME280;4652;42.716;23.218;2022-08-21T07:34:12;94301.13;;;26.20;100.00
9235;BME280;4652;42.716;23.218;2022-08-21T07:40:56;94283.16;;;25.48;100.00
9235;BME280;4652;42.716;23.218;2022-08-21T07:47:41;94228.44;;;25.19;100.00
9235;BME280;4652;42.716;23.218;2022-08-21T07:54:23;94256.75;;;24.77;100.00
9235;BME280;4652;42.716;23.218;2022-08-21T08:01:05;94267.59;;;24.03;100.00
9235;BME280;4652;42.716;23.218;2022-08-21T08:07:51;94281.44;;;24.31;100.00
9235;BME280;4652;42.716;23.218;2022-08-21T08:14:34;94267.78;;;24.73;100.00
9235;BME280;4652;42.716;23.218;2022-08-21T08:21:17;94257.94;;;25.25;100.00
9235;BME280;4652;42.716;23.218;2022-08-21T08:28:03;94261.75;;;25.98;100.00
9235;BME280;4652;42.716;23.218;2022-08-21T08:34:46;94266.09;;;25.85;94.53
9235;BME280;4652;42.716;23.218;2022-08-21T08:41:32;94268.72;;;26.31;100.00
9235;BME280;4652;42.716;23.218;2022-08-21T08:48:36;94273.75;;;26.50;83.20
9235;BME280;4652;42.716;23.218;2022-08-21T08:55:23;94259.81;;;26.68;93.52
9235;BME280;4652;42.716;23.218;2022-08-21T09:02:09;94240.16;;;27.14;82.93
9235;BME280;4652;42.716;23.218;2022-08-21T09:09:02;94249.97;;;28.61;79.81
9235;BME280;4652;42.716;23.218;2022-08-21T09:15:53;94231.38;;;28.88;64.46
9235;BME280;4652;42.716;23.218;2022-08-21T09:22:46;94225.84;;;27.63;67.87
9235;BME280;4652;42.716;23.218;2022-08-21T09:29:35;94224.56;;;28.09;69.65
9235;BME280;4652;42.716;23.218;2022-08-21T09:36:24;94215.25;;;27.14;71.59
9235;BME280;4652;42.716;23.218;2022-08-21T09:43:17;94180.03;;;26.73;80.29
9235;BME280;4652;42.716;23.218;2022-08-21T09:50:10;94207.00;;;27.88;71.96
9235;BME280;4652;42.716;23.218;2022-08-21T09:56:56;94188.66;;;27.27;74.27
9235;BME280;4652;42.716;23.218;2022-08-21T10:04:03;94190.31;;;26.18;78.10
9235;BME280;4652;42.716;23.218;2022-08-21T10:10:51;94191.53;;;27.16;79.88
9235;BME280;4652;42.716;23.218;2022-08-21T10:17:37;94180.78;;;27.25;78.50
9235;BME280;4652;42.716;23.218;2022-08-21T10:24:29;94168.44;;;27.71;75.68
9235;BME280;4652;42.716;23.218;2022-08-21T10:31:20;94169.59;;;26.99;77.05
9235;BME280;4652;42.716;23.218;2022-08-21T10:45:29;94144.88;;;27.89;70.86
9235;BME280;4652;42.716;23.218;2022-08-21T10:52:30;94144.91;;;27.18;79.98
9235;BME280;4652;42.716;23.218;2022-08-21T10:59:27;94132.22;;;27.24;74.99
9235;BME280;4652;42.716;23.218;2022-08-21T11:06:13;94135.16;;;27.48;78.48
9235;BME280;4652;42.716;23.218;2022-08-21T11:13:01;94124.75;;;27.59;72.96
9235;BME280;4652;42.716;23.218;2022-08-21T11:19:48;94122.09;;;27.11;75.41
9235;BME280;4652;42.716;23.218;2022-08-21T11:26:35;94100.81;;;27.45;75.47
9235;BME280;4652;42.716;23.218;2022-08-21T11:33:35;94082.09;;;28.13;69.34
9235;BME280;4652;42.716;23.218;2022-08-21T11:40:34;94104.53;;;27.62;70.21
9235;BME280;4652;42.716;23.218;2022-08-21T11:47:25;94092.50;;;27.08;75.68
9235;BME280;4652;42.716;23.218;2022-08-21T11:54:19;94100.03;;;27.04;76.06
9235;BME280;4652;42.716;23.218;2022-08-21T12:01:06;94099.56;;;26.68;78.73
9235;BME280;4652;42.716;23.218;2022-08-21T12:08:00;94087.56;;;26.89;78.65
9235;BME280;4652;42.716;23.218;2022-08-21T12:14:48;94016.44;;;26.07;85.10
9235;BME280;4652;42.716;23.218;2022-08-21T12:21:33;94067.06;;;26.45;78.20
9235;BME280;4652;42.716;23.218;2022-08-21T12:28:22;94072.44;;;26.15;81.19
9235;BME280;4652;42.716;23.218;2022-08-21T12:35:12;94094.66;;;25.87;80.69
9235;BME280;4652;42.716;23.218;2022-08-21T12:41:58;94108.53;;;25.76;79.11
9235;BME280;4652;42.716;23.218;2022-08-21T12:48:45;94089.13;;;25.90;78.99
9235;BME280;4652;42.716;23.218;2022-08-21T12:55:32;94069.41;;;25.92;83.95
9235;BME280;4652;42.716;23.218;2022-08-21T13:06:59;94097.22;;;25.42;76.32
9235;BME280;4652;42.716;23.218;2022-08-21T13:13:42;94099.28;;;25.24;81.12
9235;BME280;4652;42.716;23.218;2022-08-21T13:20:28;94086.69;;;25.23;79.41
9235;BME280;4652;42.716;23.218;2022-08-21T13:27:22;94078.00;;;25.28;79.96
9235;BME280;4652;42.716;23.218;2022-08-21T13:34:05;94009.03;;;25.35;79.50
9235;BME280;4652;42.716;23.218;2022-08-21T13:40:50;94057.47;;;26.05;78.13
9235;BME280;4652;42.716;23.218;2022-08-21T13:47:35;94052.69;;;26.13;76.65
9235;BME280;4652;42.716;23.218;2022-08-21T13:54:26;94046.41;;;26.12;71.82
9235;BME280;4652;42.716;23.218;2022-08-21T14:01:18;94040.91;;;26.05;70.69
9235;BME280;4652;42.716;23.218;2022-08-21T14:08:05;94036.16;;;26.09;77.05
9235;BME280;4652;42.716;23.218;2022-08-21T14:14:48;94043.28;;;26.07;77.71
9235;BME280;4652;42.716;23.218;2022-08-21T14:21:31;94039.25;;;26.22;76.42
9235;BME280;4652;42.716;23.218;2022-08-21T14:28:20;94048.19;;;26.37;78.85
9235;BME280;4652;42.716;23.218;2022-08-21T14:35:06;94050.81;;;26.51;78.57
9235;BME280;4652;42.716;23.218;2022-08-21T14:41:49;94062.81;;;26.34;82.23
9235;BME280;4652;42.716;23.218;2022-08-21T14:48:33;94041.66;;;26.16;79.13
9235;BME280;4652;42.716;23.218;2022-08-21T14:55:15;94047.34;;;25.88;93.38
9235;BME280;4652;42.716;23.218;2022-08-21T15:01:59;94031.13;;;25.32;100.00
9235;BME280;4652;42.716;23.218;2022-08-21T15:08:43;93984.09;;;24.84;100.00
9235;BME280;4652;42.716;23.218;2022-08-21T15:15:25;94013.19;;;24.88;100.00
9235;BME280;4652;42.716;23.218;2022-08-21T15:22:07;93995.09;;;24.91;100.00
9235;BME280;4652;42.716;23.218;2022-08-21T15:28:51;93936.94;;;24.68;100.00
9235;BME280;4652;42.716;23.218;2022-08-21T15:35:34;93973.88;;;24.81;100.00
9235;BME280;4652;42.716;23.218;2022-08-21T15:42:16;93945.56;;;24.77;100.00
9235;BME280;4652;42.716;23.218;2022-08-21T15:49:00;93987.25;;;24.82;100.00
9235;BME280;4652;42.716;23.218;2022-08-21T15:55:42;93963.66;;;24.85;100.00
9235;BME280;4652;42.716;23.218;2022-08-21T16:02:26;93986.44;;;24.92;100.00
9235;BME280;4652;42.716;23.218;2022-08-21T16:09:10;94013.63;;;24.80;100.00
9235;BME280;4652;42.716;23.218;2022-08-21T16:15:52;94030.13;;;24.90;100.00
9235;BME280;4652;42.716;23.218;2022-08-21T16:22:34;94035.66;;;24.69;100.00
9235;BME280;4652;42.716;23.218;2022-08-21T16:29:18;94050.63;;;24.47;100.00
9235;BME280;4652;42.716;23.218;2022-08-21T16:36:01;94046.72;;;24.34;100.00
9235;BME280;4652;42.716;23.218;2022-08-21T16:42:43;94038.50;;;24.09;100.00
9235;BME280;4652;42.716;23.218;2022-08-21T16:49:27;94032.97;;;23.98;100.00
9235;BME280;4652;42.716;23.218;2022-08-21T16:56:10;94026.66;;;23.73;100.00
9235;BME280;4652;42.716;23.218;2022-08-21T17:02:54;94055.75;;;23.74;100.00
9235;BME280;4652;42.716;23.218;2022-08-21T17:09:38;94066.34;;;23.69;100.00
9235;BME280;4652;42.716;23.218;2022-08-21T17:16:20;94078.88;;;23.59;100.00
9235;BME280;4652;42.716;23.218;2022-08-21T17:23:03;94091.00;;;23.41;100.00
9235;BME280;4652;42.716;23.218;2022-08-21T17:29:47;94105.84;;;23.29;100.00
9235;BME280;4652;42.716;23.218;2022-08-21T17:36:31;94110.91;;;23.16;100.00
9235;BME280;4652;42.716;23.218;2022-08-21T17:43:14;94132.84;;;23.13;100.00
9235;BME280;4652;42.716;23.218;2022-08-21T17:49:58;94143.44;;;23.14;100.00
9235;BME280;4652;42.716;23.218;2022-08-21T17:56:41;94148.13;;;23.07;100.00
9235;BME280;4652;42.716;23.218;2022-08-21T18:03:23;94151.97;;;22.92;100.00
9235;BME280;4652;42.716;23.218;2022-08-21T18:10:10;94151.47;;;22.79;100.00
9235;BME280;4652;42.716;23.218;2022-08-21T18:16:52;94168.25;;;22.63;100.00
9235;BME280;4652;42.716;23.218;2022-08-21T18:23:34;94187.72;;;22.51;100.00
9235;BME280;4652;42.716;23.218;2022-08-21T18:30:20;94187.50;;;22.27;100.00
9235;BME280;4652;42.716;23.218;2022-08-21T18:37:03;94204.25;;;22.18;100.00
9235;BME280;4652;42.716;23.218;2022-08-21T18:43:46;94194.31;;;22.03;100.00
9235;BME280;4652;42.716;23.218;2022-08-21T18:50:29;94191.75;;;21.84;100.00
9235;BME280;4652;42.716;23.218;2022-08-21T18:57:12;94188.78;;;21.33;100.00
9235;BME280;4652;42.716;23.218;2022-08-21T20:24:06;94249.63;;;20.93;100.00
